createdAt,value
2022-08-26T04:42:02.558Z,10.8
2022-08-26T04:44:17.948Z,11.7
2022-08-26T04:46:32.357Z,12.9
2022-08-26T04:48:46.652Z,10.6
2022-08-26T04:51:01.021Z,14.3
2022-08-26T04:53:15.379Z,14.2
2022-08-26T04:55:37.380Z,11.8
2022-08-26T04:57:47.131Z,13
2022-08-26T05:00:01.511Z,13.7
2022-08-26T05:02:15.935Z,13.5
2022-08-26T05:04:30.370Z,13.5
2022-08-26T05:06:44.633Z,13.1
2022-08-26T05:09:00.039Z,12
2022-08-26T05:11:14.384Z,12.2
2022-08-26T05:13:28.814Z,12.3
2022-08-26T05:15:43.175Z,12.4
2022-08-26T05:17:57.556Z,12.5
2022-08-26T05:20:12.877Z,11
2022-08-26T05:22:27.258Z,11.7
2022-08-26T05:24:41.582Z,11.3
2022-08-26T05:26:57.950Z,11.3
2022-08-26T05:29:13.319Z,10.8
2022-08-26T05:31:27.719Z,12.3
2022-08-26T05:33:43.026Z,11.6
2022-08-26T05:35:57.381Z,12.3
2022-08-26T05:38:13.680Z,10.5
2022-08-26T05:40:28.118Z,9.9
2022-08-26T05:42:42.495Z,9.7
2022-08-26T05:44:57.808Z,10
2022-08-26T05:47:12.192Z,9.4
2022-08-26T05:49:27.528Z,10
2022-08-26T05:51:41.954Z,10
2022-08-26T05:53:56.291Z,9.3
2022-08-26T05:56:10.690Z,9.2
2022-08-26T05:58:25.116Z,8.6
2022-08-26T06:00:42.074Z,8.7
2022-08-26T06:02:57.451Z,8.4
2022-08-26T06:05:11.796Z,9.1
2022-08-26T06:07:26.199Z,9.1
2022-08-26T06:09:40.535Z,7.1
2022-08-26T06:11:54.901Z,9
2022-08-26T06:14:09.250Z,7.9
2022-08-26T06:16:23.715Z,8.1
2022-08-26T06:18:37.963Z,8.6
2022-08-26T06:20:57.535Z,7.9
2022-08-26T06:23:09.833Z,7.1
2022-08-26T06:25:26.002Z,7.6
2022-08-26T06:27:40.342Z,8.2
2022-08-26T06:29:54.740Z,6.9
2022-08-26T06:32:10.096Z,6.4
2022-08-26T06:34:26.571Z,5.9
2022-08-26T06:36:40.772Z,6.8
2022-08-26T06:38:56.166Z,6.1
2022-08-26T06:41:10.561Z,6.7
2022-08-26T06:43:24.916Z,6.8
2022-08-26T06:45:39.262Z,6.2
2022-08-26T06:47:55.615Z,6.3
2022-08-26T06:50:10.016Z,6.5
2022-08-26T06:52:25.339Z,6.4
2022-08-26T06:54:40.726Z,6.3
2022-08-26T06:56:55.087Z,5.8
2022-08-26T06:59:09.445Z,6.4
2022-08-26T07:01:23.797Z,5.7
2022-08-26T07:03:40.122Z,5.8
2022-08-26T07:05:56.448Z,5.2
2022-08-26T07:08:12.783Z,5.7
2022-08-26T07:10:26.121Z,5.3
2022-08-26T07:12:41.547Z,5
2022-08-26T07:14:56.879Z,9.1
2022-08-26T07:17:13.956Z,5.7
2022-08-26T07:19:31.682Z,5
2022-08-26T07:21:46.049Z,5.9
2022-08-26T07:24:02.380Z,4.6
2022-08-26T07:26:16.738Z,4.4
2022-08-26T07:28:31.095Z,4.6
2022-08-26T07:30:45.508Z,4.9
2022-08-26T07:32:59.885Z,4.9
2022-08-26T07:35:14.277Z,5.3
2022-08-26T07:37:30.674Z,4.7
2022-08-26T07:39:45.995Z,5.2
2022-08-26T07:42:00.376Z,5
2022-08-26T07:44:14.718Z,4.6
2022-08-26T07:46:31.045Z,4.4
2022-08-26T07:48:47.365Z,4.6
2022-08-26T07:51:02.726Z,4.5
2022-08-26T07:53:19.389Z,4.1
2022-08-26T07:55:33.945Z,4.4
2022-08-26T07:57:49.303Z,4.1
2022-08-26T08:00:03.705Z,4.5
2022-08-26T08:02:18.092Z,4.1
2022-08-26T08:04:33.618Z,4.2
2022-08-26T08:06:48.260Z,3.5
2022-08-26T08:09:03.068Z,3.4
2022-08-26T08:11:20.279Z,4.4
2022-08-26T08:13:34.657Z,4.1
2022-08-26T08:15:51.037Z,4.1
2022-08-26T08:18:06.529Z,4
2022-08-26T08:20:21.809Z,4.4
2022-08-26T08:22:37.146Z,3.8
2022-08-26T08:24:53.458Z,4.5
2022-08-26T08:27:09.555Z,4.5
2022-08-26T08:29:23.922Z,4.3
2022-08-26T08:31:56.305Z,4.6
2022-08-26T08:33:55.659Z,4.5
2022-08-26T08:36:12.017Z,3.9
2022-08-26T08:38:28.358Z,3.7
2022-08-26T08:40:43.720Z,3.9
2022-08-26T08:42:59.103Z,3.7
2022-08-26T08:45:13.449Z,3.7
2022-08-26T08:47:27.838Z,3.5
2022-08-26T08:49:42.213Z,3.9
2022-08-26T08:51:58.445Z,3.9
2022-08-26T08:54:12.788Z,3.7
2022-08-26T08:56:27.176Z,3.8
2022-08-26T08:58:43.506Z,4.4
2022-08-26T09:00:57.985Z,3.7
2022-08-26T09:03:12.336Z,4.1
2022-08-26T09:05:26.679Z,4.1
2022-08-26T09:07:41.661Z,3.5
2022-08-26T09:09:56.043Z,3.7
2022-08-26T09:12:11.393Z,4.1
2022-08-26T09:14:26.753Z,4.3
2022-08-26T09:16:42.418Z,4.2
2022-08-26T09:18:56.715Z,5.5
2022-08-26T09:21:11.117Z,4.6
2022-08-26T09:23:26.443Z,4.8
2022-08-26T09:25:41.932Z,4
2022-08-26T09:27:56.243Z,3.8
2022-08-26T09:30:12.581Z,4.2
2022-08-26T09:32:26.926Z,3.9
2022-08-26T09:34:42.256Z,4.2
2022-08-26T09:36:56.652Z,4
2022-08-26T09:39:11.007Z,3.8
2022-08-26T09:41:25.384Z,3.9
2022-08-26T09:43:40.743Z,3.9
2022-08-26T09:45:59.364Z,4.3
2022-08-26T09:48:14.387Z,3.7
2022-08-26T09:50:30.755Z,3.7
2022-08-26T09:52:45.125Z,3.8
2022-08-26T09:55:00.493Z,3
2022-08-26T09:57:14.857Z,2.9
2022-08-26T09:59:31.206Z,4.3
2022-08-26T10:01:46.707Z,3.7
2022-08-26T10:04:00.994Z,3.7
2022-08-26T10:06:16.262Z,4.2
2022-08-26T10:08:30.674Z,4.2
2022-08-26T10:10:46.027Z,3.6
2022-08-26T10:13:01.351Z,4.2
2022-08-26T10:15:15.699Z,3.8
2022-08-26T10:17:32.005Z,4.5
2022-08-26T10:19:56.417Z,3.8
2022-08-26T10:22:03.634Z,3.7
2022-08-26T10:24:17.974Z,3.1
2022-08-26T10:26:34.357Z,3.5
2022-08-26T10:28:49.696Z,3.3
2022-08-26T10:31:04.106Z,3.4
2022-08-26T10:33:19.420Z,2.9
2022-08-26T10:35:33.839Z,2.9
2022-08-26T10:37:49.271Z,3.4
2022-08-26T10:40:03.674Z,3.3
2022-08-26T10:42:18.972Z,3.2
2022-08-26T10:44:33.320Z,3.4
2022-08-26T10:46:47.655Z,2.5
2022-08-26T10:49:03.167Z,3
2022-08-26T10:51:18.311Z,3
2022-08-26T10:53:33.655Z,2.8
2022-08-26T10:55:48.028Z,2.8
2022-08-26T10:58:04.631Z,3.4
2022-08-26T11:00:19.673Z,3.3
2022-08-26T11:02:34.054Z,2.9
2022-08-26T11:04:50.734Z,2.8
2022-08-26T11:07:06.771Z,2.5
2022-08-26T11:09:24.162Z,2.3
2022-08-26T11:11:38.480Z,3.2
2022-08-26T11:13:52.796Z,3.8
2022-08-26T11:16:07.204Z,2.7
2022-08-26T11:18:22.518Z,2.6
2022-08-26T11:20:41.698Z,2.2
2022-08-26T11:22:55.135Z,2.6
2022-08-26T11:25:11.693Z,2.6
2022-08-26T11:27:25.797Z,2.3
2022-08-26T11:29:40.156Z,2.4
2022-08-26T11:31:55.566Z,2.5
2022-08-26T11:34:11.874Z,2
2022-08-26T11:36:28.192Z,2.5
2022-08-26T11:38:42.546Z,2.7
2022-08-26T11:40:56.913Z,2
2022-08-26T11:43:11.288Z,2
2022-08-26T11:45:25.711Z,2.5
2022-08-26T11:47:40.001Z,2.1
2022-08-26T11:49:55.390Z,2
2022-08-26T11:52:09.713Z,2.1
2022-08-26T11:54:26.964Z,2.3
2022-08-26T11:56:41.415Z,1.7
2022-08-26T11:58:55.816Z,1.8
2022-08-26T12:01:12.121Z,2.2
2022-08-26T12:03:26.519Z,2.1
2022-08-26T12:05:40.880Z,1.8
2022-08-26T12:07:55.268Z,1.8
2022-08-26T12:10:09.633Z,1.9
2022-08-26T12:12:23.968Z,1.9
2022-08-26T12:14:40.283Z,1.9
2022-08-26T12:16:54.778Z,1.9
2022-08-26T12:19:10.997Z,2.1
2022-08-26T12:21:26.324Z,1.9
2022-08-26T12:23:40.664Z,2
2022-08-26T12:25:57.009Z,2
2022-08-26T12:28:13.351Z,2.3
2022-08-26T12:30:28.698Z,1.6
2022-08-26T12:32:50.945Z,2.3
2022-08-26T12:35:01.496Z,2.1
2022-08-26T12:37:16.747Z,2.5
2022-08-26T12:39:32.127Z,2.3
2022-08-26T12:41:46.459Z,2.2
2022-08-26T12:44:00.804Z,2.7
2022-08-26T12:46:15.182Z,2.4
2022-08-26T12:48:29.531Z,2
2022-08-26T12:50:43.896Z,2.8
2022-08-26T12:52:58.341Z,2.9
2022-08-26T12:55:12.713Z,2.7
2022-08-26T12:57:27.105Z,2.8
2022-08-26T12:59:41.482Z,2.9
2022-08-26T13:01:56.992Z,4
2022-08-26T13:04:11.192Z,3.7
2022-08-26T13:06:25.529Z,3.9
2022-08-26T13:08:39.888Z,4.5
2022-08-26T13:10:54.338Z,3.7
2022-08-26T13:13:08.843Z,3.7
2022-08-26T13:15:23.063Z,4.4
2022-08-26T13:17:37.387Z,4
2022-08-26T13:19:53.768Z,4.5
2022-08-26T13:22:08.159Z,4.3
2022-08-26T13:24:22.544Z,4.3
2022-08-26T13:26:36.922Z,4.7
2022-08-26T13:29:02.055Z,4.3
2022-08-26T13:31:08.652Z,4
2022-08-26T13:33:22.917Z,3.8
2022-08-26T13:35:37.283Z,4.4
2022-08-26T13:37:51.658Z,4.6
2022-08-26T13:40:06.142Z,3.9
2022-08-26T13:42:20.467Z,9
2022-08-26T13:44:34.853Z,5.1
2022-08-26T13:46:49.203Z,3.5
2022-08-26T13:49:03.563Z,4.1
2022-08-26T13:51:17.973Z,3.2
2022-08-26T13:53:32.322Z,4.3
2022-08-26T13:55:46.730Z,5.3
2022-08-26T13:58:01.075Z,3.3
2022-08-26T14:00:15.514Z,4
2022-08-26T14:02:29.885Z,3.8
2022-08-26T14:04:44.286Z,3.9
2022-08-26T14:06:58.634Z,3.7
2022-08-26T14:09:13.018Z,3.7
2022-08-26T14:11:27.387Z,3.8
2022-08-26T14:13:41.852Z,4.1
2022-08-26T14:15:56.296Z,3.6
2022-08-26T14:18:10.584Z,3.8
2022-08-26T14:20:25.956Z,3.6
2022-08-26T14:22:47.732Z,4
2022-08-26T14:24:58.606Z,3.6
2022-08-26T14:27:12.960Z,3.8
2022-08-26T14:29:27.293Z,3.7
2022-08-26T14:31:41.732Z,3.3
2022-08-26T14:33:56.108Z,3.7
2022-08-26T14:36:10.471Z,3.4
2022-08-26T14:38:24.790Z,3.6
2022-08-26T14:40:39.716Z,3.9
2022-08-26T14:42:55.049Z,3.9
2022-08-26T14:45:10.396Z,3.9
2022-08-26T14:47:24.759Z,3.6
2022-08-26T14:49:39.115Z,3.9
2022-08-26T14:51:53.474Z,4
2022-08-26T14:54:07.948Z,4.1
2022-08-26T14:56:22.327Z,3.8
2022-08-26T14:58:36.689Z,4.2
2022-08-26T15:00:52.031Z,3.7
2022-08-26T15:03:06.616Z,3.6
2022-08-26T15:05:20.787Z,3.7
2022-08-26T15:07:35.166Z,3.9
2022-08-26T15:09:49.517Z,3.6
2022-08-26T15:12:03.861Z,4.2
2022-08-26T15:14:20.171Z,3.7
2022-08-26T15:16:34.604Z,4
2022-08-26T15:18:48.982Z,3.8
2022-08-26T15:21:03.645Z,3.4
2022-08-26T15:23:19.010Z,3.8
2022-08-26T15:25:34.413Z,3.6
2022-08-26T15:27:48.739Z,3.4
2022-08-26T15:30:03.181Z,3.7
2022-08-26T15:32:17.547Z,3.7
2022-08-26T15:34:31.924Z,4
2022-08-26T15:36:46.487Z,4.2
2022-08-26T15:39:00.668Z,3.3
2022-08-26T15:41:15.049Z,3.1
2022-08-26T15:43:30.421Z,4
2022-08-26T15:45:44.755Z,3.4
2022-08-26T15:48:02.831Z,3.7
2022-08-26T15:50:16.531Z,3.9
2022-08-26T15:52:30.911Z,3.6
2022-08-26T15:54:45.287Z,3.3
2022-08-26T15:56:59.642Z,4
2022-08-26T15:59:14.046Z,3.1
2022-08-26T16:01:29.417Z,3.3
2022-08-26T16:03:43.781Z,3
2022-08-26T16:05:59.205Z,3.1
2022-08-26T16:08:12.521Z,3.3
2022-08-26T16:10:26.837Z,2.9
2022-08-26T16:12:41.186Z,3.8
2022-08-26T16:14:55.583Z,3.2
2022-08-26T16:17:10.910Z,3.4
2022-08-26T16:19:25.313Z,3.2
2022-08-26T16:21:39.719Z,3
2022-08-26T16:23:54.038Z,3.2
2022-08-26T16:26:10.766Z,2.8
2022-08-26T16:28:26.747Z,2.9
2022-08-26T16:30:41.125Z,3.1
2022-08-26T16:32:55.485Z,2.5
2022-08-26T16:35:09.873Z,3.1
2022-08-26T16:37:25.203Z,2.9
2022-08-26T16:39:45.012Z,3
2022-08-26T16:41:56.935Z,2.7
2022-08-26T16:44:11.256Z,3.3
2022-08-26T16:46:26.019Z,3.6
2022-08-26T16:48:40.161Z,3.2
2022-08-26T16:50:55.810Z,3.2
2022-08-26T16:55:25.491Z,3.1
2022-08-26T16:57:40.235Z,2.9
2022-08-26T16:59:54.471Z,2.9
2022-08-26T17:02:09.417Z,1.8
2022-08-26T17:04:24.784Z,2.2
2022-08-26T17:06:39.117Z,2.6
2022-08-26T17:08:54.633Z,2.6
2022-08-26T17:11:09.073Z,2.6
2022-08-26T17:13:34.632Z,3.3
2022-08-26T17:15:41.091Z,2.9
2022-08-26T17:17:55.460Z,2.4
2022-08-26T17:20:09.821Z,2.3
2022-08-26T17:22:24.518Z,3.2
2022-08-26T17:24:39.000Z,2.6
2022-08-26T17:26:55.603Z,2.9
2022-08-26T17:29:10.702Z,2.8
2022-08-26T17:31:25.288Z,3.1
2022-08-26T17:33:39.543Z,2.5
2022-08-26T17:35:54.004Z,2.5
2022-08-26T17:38:08.548Z,2.3
2022-08-26T17:40:22.784Z,2.6
2022-08-26T17:42:37.134Z,2.2
2022-08-26T17:44:51.514Z,2
2022-08-26T17:47:05.884Z,3.1
2022-08-26T17:49:20.292Z,1.6
2022-08-26T17:51:34.706Z,2.7
2022-08-26T17:53:49.121Z,3.6
2022-08-26T17:56:03.477Z,2.7
2022-08-26T17:58:17.897Z,2.4
2022-08-26T18:00:32.702Z,2.2
2022-08-26T18:02:47.084Z,2.4
2022-08-26T18:05:02.494Z,2.7
2022-08-26T18:07:16.869Z,2.5
2022-08-26T18:09:31.361Z,2.3
2022-08-26T18:11:45.740Z,3.7
2022-08-26T18:14:00.138Z,2.5
2022-08-26T18:16:14.650Z,2.9
2022-08-26T18:18:29.162Z,2.8
2022-08-26T18:20:43.548Z,2.4
2022-08-26T18:22:57.998Z,2.7
2022-08-26T18:25:12.912Z,2.8
2022-08-26T18:27:27.393Z,2.6
2022-08-26T18:29:45.315Z,2.2
2022-08-26T18:31:59.158Z,2.3
2022-08-26T18:34:13.679Z,2.2
2022-08-26T18:36:28.111Z,2.1
2022-08-26T18:38:44.547Z,1.9
2022-08-26T18:40:58.974Z,1.9
2022-08-26T18:43:13.790Z,2.5
2022-08-26T18:45:28.322Z,1.9
2022-08-26T18:47:42.888Z,1.9
2022-08-26T18:49:57.377Z,1.8
2022-08-26T18:52:11.961Z,2
2022-08-26T18:54:26.927Z,1.8
2022-08-26T18:56:41.366Z,1.8
2022-08-26T18:58:56.025Z,2.3
2022-08-26T19:01:10.752Z,2
2022-08-26T19:03:25.226Z,2.2
2022-08-26T19:05:39.885Z,2.3
2022-08-26T19:07:54.530Z,2.4
2022-08-26T19:10:09.014Z,2.7
2022-08-26T19:12:25.426Z,2.2
2022-08-26T19:14:40.427Z,2
2022-08-26T19:16:54.789Z,2.2
2022-08-26T19:19:10.015Z,2.2
2022-08-26T19:21:25.347Z,2.6
2022-08-26T19:23:39.750Z,2
